Aviation Digital Data Service (ADDS)

Output produced by TAFs form (0716 UTC 26 March 2017)
found at http://aviationweather.gov/adds/tafs/
 
KFMN 260520Z 2606/2706 29008KT P6SM VCSH SCT025 BKN050 
     TEMPO 2606/2608 -SHRA BKN030 
     FM260900 31008KT P6SM SCT025 BKN050 
     TEMPO 2609/2612 BKN025 
     FM261700 28013G22KT P6SM SCT060 
     FM270200 VRB05KT P6SM SKC